Terminal Aerodrome Forecast
Issued by NWS

Home | Current Version | Previous Version | Graphics & Text | Print | Product List | Glossary On
Versions: 1 2 3 4 5 6 7 8 9 10 11 12 13 14
000
FTUS43 KTOP 240500
TAFFOE
TAF
KFOE 240539Z 2406/2506 22005KT P6SM SKC
     FM241600 28012G20KT P6SM SCT250
     FM250000 05004KT P6SM SCT022 BKN035=

USA.gov is the U.S. government's official web portal to all federal, state and local government web resources and services.